createdAt,value
2022-10-06T00:00:02.096Z,97357.97
2022-10-06T00:02:28.867Z,97242.34
2022-10-06T00:04:55.575Z,97200.56
2022-10-06T00:07:22.267Z,97326.72
2022-10-06T00:09:48.888Z,97162.22
2022-10-06T00:12:15.498Z,97311.16
2022-10-06T00:14:53.411Z,97332.75
2022-10-06T00:17:20.001Z,97370.03
2022-10-06T00:19:46.604Z,97310.50
2022-10-06T00:22:13.219Z,97158.53
2022-10-06T00:24:39.854Z,97446.56
2022-10-06T00:27:06.451Z,97346.56
2022-10-06T00:29:33.036Z,97370.31
2022-10-06T00:31:59.707Z,97396.94
2022-10-06T00:34:26.444Z,97349.16
2022-10-06T00:36:53.024Z,97200.03
2022-10-06T00:39:20.414Z,97163.31
2022-10-06T00:41:47.197Z,97278.00
2022-10-06T00:44:13.836Z,97197.44
2022-10-06T00:46:47.839Z,97356.78
2022-10-06T00:49:36.005Z,97432.47
2022-10-06T00:52:10.201Z,97327.97
2022-10-06T00:55:28.433Z,97428.13
2022-10-06T00:57:55.052Z,97390.94
2022-10-06T01:00:21.701Z,97303.41
2022-10-06T01:02:54.812Z,97316.78
2022-10-06T01:05:26.110Z,97366.78
2022-10-06T01:07:53.022Z,97321.03
2022-10-06T01:10:20.174Z,97359.28
2022-10-06T01:12:46.749Z,97370.19
2022-10-06T01:15:13.447Z,97225.91
2022-10-06T01:17:57.697Z,97360.66
2022-10-06T01:20:24.310Z,97429.09
2022-10-06T01:22:55.577Z,97338.19
2022-10-06T01:25:22.291Z,97222.75
2022-10-06T01:27:53.579Z,97202.41
2022-10-06T01:30:28.712Z,97410.34
2022-10-06T01:32:55.461Z,97392.72
2022-10-06T01:35:22.081Z,97385.72
2022-10-06T01:37:48.690Z,97137.88
2022-10-06T01:40:15.297Z,97221.88
2022-10-06T01:42:41.911Z,97286.59
2022-10-06T01:45:08.797Z,97296.59
2022-10-06T01:47:35.431Z,97297.53
2022-10-06T01:50:02.102Z,97228.28
2022-10-06T01:52:28.928Z,97341.13
2022-10-06T01:54:55.594Z,97305.69
2022-10-06T01:57:22.176Z,97373.59
2022-10-06T01:59:52.685Z,97199.59
2022-10-06T02:02:21.306Z,97398.25
2022-10-06T02:04:47.926Z,97228.59
2022-10-06T02:07:14.572Z,97251.81
2022-10-06T02:09:41.198Z,97336.47
2022-10-06T02:12:07.859Z,97302.53
2022-10-06T02:14:34.847Z,97264.81
2022-10-06T02:17:01.461Z,97344.78
2022-10-06T02:19:32.199Z,97413.44
2022-10-06T02:21:58.821Z,97419.06
2022-10-06T02:24:25.424Z,97257.09
2022-10-06T02:26:53.147Z,97252.06
2022-10-06T02:29:20.515Z,97332.19
2022-10-06T02:31:47.257Z,97242.56
2022-10-06T02:34:13.827Z,97351.19
2022-10-06T02:36:40.446Z,97317.31
2022-10-06T02:39:07.077Z,97371.00
2022-10-06T02:41:33.831Z,97311.84
2022-10-06T02:44:00.424Z,97391.94
2022-10-06T02:46:27.543Z,97310.63
2022-10-06T02:48:54.241Z,97341.22
2022-10-06T02:51:21.680Z,97259.22
2022-10-06T02:53:48.764Z,97419.66
2022-10-06T02:56:20.274Z,97439.88
2022-10-06T02:58:48.017Z,97311.81
2022-10-06T03:01:16.777Z,97372.63
2022-10-06T03:03:43.622Z,97350.13
2022-10-06T03:06:22.130Z,97467.53
2022-10-06T03:08:48.853Z,97465.03
2022-10-06T03:11:15.598Z,97201.16
2022-10-06T03:13:42.219Z,97383.69
2022-10-06T03:16:16.312Z,97376.16
2022-10-06T03:18:46.903Z,97378.38
2022-10-06T03:21:14.966Z,97440.03
2022-10-06T03:23:43.051Z,97296.34
2022-10-06T03:26:09.950Z,97377.28
2022-10-06T03:28:36.634Z,97414.03
2022-10-06T03:31:03.894Z,97432.47
2022-10-06T03:33:30.857Z,97448.19
2022-10-06T03:36:01.124Z,97193.59
2022-10-06T03:38:28.144Z,97363.22
2022-10-06T03:41:05.104Z,97274.66
2022-10-06T03:43:31.780Z,97371.13
2022-10-06T03:45:59.273Z,97449.38
2022-10-06T03:48:26.426Z,97461.78
2022-10-06T03:51:01.209Z,97292.19
2022-10-06T03:53:28.545Z,97381.44
2022-10-06T03:56:07.173Z,97478.88
2022-10-06T03:58:38.374Z,97378.16
2022-10-06T04:01:08.837Z,97473.50
2022-10-06T04:03:35.507Z,97435.06
2022-10-06T04:06:03.996Z,97320.13
2022-10-06T04:08:31.377Z,97407.50
2022-10-06T04:11:09.077Z,97387.09
2022-10-06T04:13:35.786Z,97340.69
2022-10-06T04:16:22.460Z,97394.44
2022-10-06T04:18:50.817Z,97379.22
2022-10-06T04:21:17.476Z,97338.81
2022-10-06T04:23:44.247Z,97354.22
2022-10-06T04:26:17.763Z,97317.41
2022-10-06T04:28:44.754Z,97189.97
2022-10-06T04:35:05.863Z,97383.09
2022-10-06T04:37:32.435Z,97413.16
2022-10-06T04:39:59.169Z,97157.25
2022-10-06T04:42:25.782Z,97265.09
2022-10-06T04:44:52.351Z,97404.75
2022-10-06T04:47:18.928Z,97310.22
2022-10-06T04:49:45.562Z,97333.72
2022-10-06T04:52:12.156Z,97238.50
2022-10-06T04:54:38.756Z,97381.84
2022-10-06T04:57:05.959Z,97316.66
2022-10-06T04:59:50.972Z,97414.03
2022-10-06T05:02:18.122Z,97345.66
2022-10-06T05:04:45.139Z,97420.72
2022-10-06T05:07:11.734Z,97341.56
2022-10-06T05:09:38.433Z,97555.75
2022-10-06T05:12:05.078Z,97408.19
2022-10-06T05:14:33.459Z,97404.53
2022-10-06T05:17:00.914Z,97480.00
2022-10-06T05:19:27.634Z,97489.91
2022-10-06T05:21:54.254Z,97463.84
2022-10-06T05:24:20.881Z,97550.84
2022-10-06T05:26:47.451Z,97321.13
2022-10-06T05:29:14.069Z,97469.41
2022-10-06T05:31:43.200Z,97531.44
2022-10-06T05:34:09.840Z,97588.06
2022-10-06T05:36:36.495Z,97514.75
2022-10-06T05:39:03.899Z,97604.44
2022-10-06T05:48:58.913Z,97535.16
2022-10-06T05:51:30.654Z,97445.47
2022-10-06T05:54:00.560Z,97471.19
2022-10-06T05:56:31.502Z,97436.44
2022-10-06T05:58:58.628Z,97508.03
2022-10-06T06:01:35.035Z,97589.53
2022-10-06T06:04:03.489Z,97483.63
2022-10-06T06:06:32.179Z,97505.81
2022-10-06T06:08:59.613Z,97415.91
2022-10-06T06:11:27.890Z,97569.81
2022-10-06T06:13:58.659Z,97540.91
2022-10-06T06:16:25.747Z,97462.69
2022-10-06T06:18:52.405Z,97275.16
2022-10-06T06:21:19.049Z,97468.59
2022-10-06T06:23:46.851Z,97584.63
2022-10-06T06:26:15.479Z,97598.09
2022-10-06T06:28:42.381Z,97517.53
2022-10-06T06:31:10.930Z,97394.06
2022-10-06T06:33:38.889Z,97469.84
2022-10-06T06:36:15.358Z,97631.44
2022-10-06T06:38:42.368Z,97515.06
2022-10-06T06:41:22.728Z,97523.13
2022-10-06T06:43:50.035Z,97559.84
2022-10-06T06:46:18.187Z,97527.66
2022-10-06T06:48:45.512Z,97499.78
2022-10-06T06:51:12.202Z,97585.66
2022-10-06T06:53:41.937Z,97473.13
2022-10-06T06:56:08.904Z,97361.47
2022-10-06T06:58:35.902Z,97587.88
2022-10-06T07:01:08.955Z,97631.00
2022-10-06T07:06:27.785Z,97430.22
2022-10-06T07:08:54.997Z,97511.25
2022-10-06T07:11:23.208Z,97581.34
2022-10-06T07:13:57.772Z,97572.81
2022-10-06T07:16:42.954Z,97471.31
2022-10-06T07:19:29.307Z,97540.31
2022-10-06T07:22:35.575Z,97629.72
2022-10-06T07:25:08.513Z,97544.09
2022-10-06T07:27:46.011Z,97522.94
2022-10-06T07:30:19.468Z,97531.44
2022-10-06T07:32:50.303Z,97492.34
2022-10-06T07:35:21.218Z,97594.69
2022-10-06T07:37:48.526Z,97545.00
2022-10-06T07:40:15.337Z,97623.50
2022-10-06T07:42:53.927Z,97489.75
2022-10-06T07:45:41.115Z,97503.00
2022-10-06T07:48:09.685Z,97653.72
2022-10-06T07:50:38.278Z,97591.69
2022-10-06T07:53:08.834Z,97509.72
2022-10-06T07:55:40.044Z,97521.22
2022-10-06T07:58:16.740Z,97562.50
2022-10-06T08:00:43.553Z,97685.00
2022-10-06T08:03:11.004Z,97535.63
2022-10-06T08:05:39.260Z,97521.91
2022-10-06T08:08:06.279Z,97460.41
2022-10-06T08:10:32.918Z,97540.78
2022-10-06T08:12:59.515Z,97577.84
2022-10-06T08:15:26.106Z,97643.50
2022-10-06T08:17:54.227Z,97579.53
2022-10-06T08:20:20.880Z,97590.31
2022-10-06T08:22:48.023Z,97643.63
2022-10-06T08:25:15.053Z,97604.31
2022-10-06T08:27:44.204Z,97596.50
2022-10-06T08:30:11.382Z,97609.78
2022-10-06T08:32:38.336Z,97539.81
2022-10-06T08:35:05.306Z,97400.00
2022-10-06T08:37:31.890Z,97604.56
2022-10-06T08:39:58.502Z,97546.06
2022-10-06T08:42:37.473Z,97700.84
2022-10-06T08:45:06.646Z,97471.38
2022-10-06T08:47:35.353Z,97445.88
2022-10-06T08:50:04.136Z,97523.94
2022-10-06T08:52:36.303Z,97704.19
2022-10-06T08:55:24.654Z,97711.00
2022-10-06T09:00:37.654Z,97734.59
2022-10-06T09:03:05.628Z,97670.81
2022-10-06T09:05:34.764Z,97543.81
2022-10-06T09:08:04.366Z,97710.09
2022-10-06T09:10:39.909Z,97704.13
2022-10-06T09:13:09.277Z,97706.09
2022-10-06T09:15:47.005Z,97644.94
2022-10-06T09:18:34.813Z,97692.22
2022-10-06T09:21:16.155Z,97720.25
2022-10-06T09:23:48.593Z,97565.28
2022-10-06T09:26:34.403Z,97499.03
2022-10-06T09:29:01.029Z,97472.81
2022-10-06T09:31:29.331Z,97385.03
2022-10-06T09:34:21.769Z,97733.22
2022-10-06T09:37:09.132Z,97723.16
2022-10-06T09:39:37.350Z,97525.75
2022-10-06T09:42:13.920Z,97595.13
2022-10-06T09:44:52.714Z,97604.63
2022-10-06T09:47:39.719Z,97559.22
2022-10-06T09:50:12.077Z,97733.78
2022-10-06T09:52:39.383Z,97592.69
2022-10-06T09:55:12.529Z,97552.22
2022-10-06T09:57:39.210Z,97535.44
2022-10-06T10:00:42.958Z,97546.41
2022-10-06T10:03:11.128Z,97572.91
2022-10-06T10:05:39.526Z,97581.16
2022-10-06T10:08:13.077Z,97429.03
2022-10-06T10:10:39.856Z,97522.66
2022-10-06T10:13:21.235Z,97602.88
2022-10-06T10:15:59.204Z,97532.06
2022-10-06T10:18:28.629Z,97552.47
2022-10-06T10:21:05.147Z,97740.50
2022-10-06T10:23:42.725Z,97508.72
2022-10-06T10:26:50.254Z,97744.03
2022-10-06T10:29:22.842Z,97741.50
2022-10-06T10:32:18.683Z,97679.88
2022-10-06T10:35:20.751Z,97650.03
2022-10-06T10:38:00.300Z,97534.94
2022-10-06T10:40:34.423Z,97531.78
2022-10-06T10:43:19.658Z,97751.56
2022-10-06T10:45:49.083Z,97677.03
2022-10-06T10:48:40.083Z,97743.09
2022-10-06T10:51:13.484Z,97605.94
2022-10-06T10:53:47.704Z,97547.19
2022-10-06T10:56:16.248Z,97456.03
2022-10-06T10:58:43.758Z,97479.97
2022-10-06T11:01:32.243Z,97735.13
2022-10-06T11:03:58.955Z,97606.44
2022-10-06T11:07:01.510Z,97672.59
2022-10-06T11:09:46.312Z,97730.41
2022-10-06T11:12:25.142Z,97350.38
2022-10-06T11:15:03.568Z,97613.34
2022-10-06T11:17:44.791Z,97611.94
2022-10-06T11:20:26.075Z,97395.44
2022-10-06T11:23:06.830Z,97742.75
2022-10-06T11:25:42.724Z,97488.72
2022-10-06T11:28:17.398Z,97732.28
2022-10-06T11:30:59.234Z,97733.56
2022-10-06T11:33:29.783Z,97639.38
2022-10-06T11:35:56.515Z,97643.44
2022-10-06T11:38:25.308Z,97391.91
2022-10-06T11:41:10.450Z,97604.97
2022-10-06T11:44:00.234Z,97579.63
2022-10-06T11:46:41.276Z,97499.53
2022-10-06T11:49:29.080Z,97732.31
2022-10-06T11:52:08.701Z,97727.97
2022-10-06T11:54:56.713Z,97698.81
2022-10-06T11:57:29.353Z,97740.38
2022-10-06T12:00:02.314Z,97584.31
2022-10-06T12:02:35.275Z,97645.34
2022-10-06T12:05:55.261Z,97696.56
2022-10-06T12:08:01.300Z,97593.13
2022-10-06T12:10:27.880Z,97739.91
2022-10-06T12:13:31.732Z,97743.28
2022-10-06T12:19:57.455Z,97573.81
2022-10-06T12:23:00.527Z,97480.13
2022-10-06T12:25:31.670Z,97323.28
2022-10-06T12:28:21.725Z,97735.19
2022-10-06T12:31:18.069Z,97606.50
2022-10-06T12:33:45.145Z,97392.00
2022-10-06T12:40:42.448Z,97700.47
2022-10-06T12:43:14.901Z,97570.13
2022-10-06T12:45:46.130Z,97546.19
2022-10-06T12:48:47.172Z,97757.00
2022-10-06T12:51:13.720Z,97562.16
2022-10-06T12:53:45.793Z,97563.16
2022-10-06T12:56:23.271Z,97589.72
2022-10-06T12:58:49.891Z,97650.47
2022-10-06T13:01:16.787Z,97670.97
2022-10-06T13:03:47.545Z,97540.69
2022-10-06T13:06:14.146Z,97481.16
2022-10-06T13:08:41.782Z,97426.31
2022-10-06T13:11:27.323Z,97611.38
2022-10-06T13:13:55.594Z,97593.16
2022-10-06T13:16:23.670Z,97616.09
2022-10-06T13:18:54.387Z,97349.78
2022-10-06T13:21:20.989Z,97670.50
2022-10-06T13:23:47.560Z,97595.78
2022-10-06T13:26:30.351Z,97682.41
2022-10-06T13:28:57.751Z,97557.19
2022-10-06T13:31:37.686Z,97684.75
2022-10-06T13:34:09.678Z,97700.25
2022-10-06T13:36:41.897Z,97614.38
2022-10-06T13:39:18.475Z,97745.69
2022-10-06T13:41:57.678Z,97570.78
2022-10-06T13:44:33.503Z,97746.97
2022-10-06T13:47:02.430Z,97640.50
2022-10-06T13:49:45.768Z,97437.00
2022-10-06T13:52:34.204Z,97749.81
2022-10-06T13:55:01.361Z,97749.47
2022-10-06T13:57:42.520Z,97753.72
2022-10-06T14:00:16.199Z,97531.44
2022-10-06T14:02:43.859Z,97497.16
2022-10-06T14:05:19.839Z,97718.66
2022-10-06T14:07:47.417Z,97613.31
2022-10-06T14:10:47.933Z,97752.75
2022-10-06T14:13:29.753Z,97751.88
2022-10-06T14:16:04.586Z,97722.16
2022-10-06T14:18:38.531Z,97423.38
2022-10-06T14:21:17.584Z,97754.47
2022-10-06T14:23:50.718Z,97670.16
2022-10-06T14:26:19.027Z,97488.09
2022-10-06T14:28:47.728Z,97534.50
2022-10-06T14:31:14.975Z,97576.25
2022-10-06T14:33:41.870Z,97358.50
2022-10-06T14:36:23.439Z,97332.19
2022-10-06T14:38:50.949Z,97515.19
2022-10-06T14:41:19.446Z,97571.53
2022-10-06T14:43:47.701Z,97479.13
2022-10-06T14:46:15.701Z,97465.22
2022-10-06T14:48:42.459Z,97521.31
2022-10-06T14:51:09.607Z,97623.91
2022-10-06T14:53:39.377Z,97777.38
2022-10-06T14:56:08.410Z,97569.81
2022-10-06T14:58:38.757Z,97418.84
2022-10-06T15:01:08.090Z,97544.81
2022-10-06T15:03:35.494Z,97510.38
2022-10-06T15:06:24.278Z,97587.44
2022-10-06T15:08:52.059Z,97528.69
2022-10-06T15:11:21.300Z,97536.66
2022-10-06T15:13:48.225Z,97567.16
2022-10-06T15:16:15.594Z,97521.47
2022-10-06T15:18:42.939Z,97475.91
2022-10-06T15:21:11.364Z,97505.31
2022-10-06T15:23:38.455Z,97492.97
2022-10-06T15:26:24.539Z,97658.97
2022-10-06T15:29:00.906Z,97638.91
2022-10-06T15:31:29.584Z,97616.09
2022-10-06T15:33:56.385Z,97454.66
2022-10-06T15:36:24.399Z,97640.47
2022-10-06T15:38:52.074Z,97437.59
2022-10-06T15:41:19.003Z,97499.84
2022-10-06T15:43:58.018Z,97668.91
2022-10-06T15:46:30.173Z,97631.44
2022-10-06T15:49:03.658Z,97714.81
2022-10-06T15:51:36.554Z,97479.09
2022-10-06T15:54:03.349Z,97666.31
2022-10-06T15:56:31.785Z,97747.81
2022-10-06T15:59:01.960Z,97569.34
2022-10-06T16:01:39.349Z,97609.75
2022-10-06T16:04:12.598Z,97675.28
2022-10-06T16:06:48.972Z,97497.59
2022-10-06T16:09:17.138Z,97629.94
2022-10-06T16:11:43.844Z,97633.38
2022-10-06T16:14:10.559Z,97703.75
2022-10-06T16:16:42.671Z,97590.03
2022-10-06T16:19:10.848Z,97581.50
2022-10-06T16:21:37.457Z,97751.44
2022-10-06T16:24:04.204Z,97751.41
2022-10-06T16:26:31.147Z,97692.63
2022-10-06T16:28:57.805Z,97612.41
2022-10-06T16:31:24.574Z,97731.75
2022-10-06T16:33:51.288Z,97755.50
2022-10-06T16:36:18.104Z,97770.06
2022-10-06T16:38:44.792Z,97752.03
2022-10-06T16:41:11.541Z,97739.41
2022-10-06T16:43:42.449Z,97678.66
2022-10-06T16:46:10.727Z,97817.38
2022-10-06T16:48:38.895Z,97761.81
2022-10-06T16:51:10.268Z,97782.94
2022-10-06T16:53:58.086Z,97835.38
2022-10-06T16:56:27.416Z,97823.84
2022-10-06T16:58:58.365Z,97876.81
2022-10-06T17:01:26.853Z,97831.00
2022-10-06T17:04:06.883Z,97898.88
2022-10-06T17:06:39.475Z,97785.28
2022-10-06T17:09:14.479Z,97809.41
2022-10-06T17:11:51.816Z,97820.25
2022-10-06T17:14:19.496Z,97737.66
2022-10-06T17:16:46.580Z,97859.50
2022-10-06T17:19:14.411Z,97712.94
2022-10-06T17:21:46.152Z,97781.63
2022-10-06T17:24:14.355Z,97789.91
2022-10-06T17:26:42.539Z,97759.78
2022-10-06T17:29:13.946Z,97731.75
2022-10-06T17:31:42.323Z,97793.94
2022-10-06T17:34:12.053Z,97926.38
2022-10-06T17:36:39.616Z,97926.81
2022-10-06T17:39:06.763Z,97742.97
2022-10-06T17:41:37.359Z,97920.22
2022-10-06T17:44:05.421Z,97736.25
2022-10-06T17:46:48.737Z,97728.09
2022-10-06T17:49:16.719Z,97611.69
2022-10-06T17:51:45.640Z,97577.75
2022-10-06T17:54:16.208Z,97641.94
2022-10-06T17:56:43.568Z,97723.66
2022-10-06T17:59:15.072Z,97773.97
2022-10-06T18:01:42.147Z,97819.28
2022-10-06T18:04:29.707Z,97669.78
2022-10-06T18:06:57.121Z,97716.03
2022-10-06T18:09:24.740Z,97833.44
2022-10-06T18:11:59.872Z,97770.94
2022-10-06T18:14:28.166Z,97802.22
2022-10-06T18:17:38.581Z,97768.06
2022-10-06T18:20:06.371Z,97763.03
2022-10-06T18:22:33.044Z,97673.19
2022-10-06T18:25:00.096Z,97840.69
2022-10-06T18:27:27.370Z,97768.78
2022-10-06T18:29:54.052Z,97810.28
2022-10-06T18:34:06.875Z,97850.72
2022-10-06T18:38:39.493Z,97928.19
2022-10-06T18:45:05.148Z,97874.44
2022-10-06T18:47:50.555Z,97971.56
2022-10-06T18:50:17.303Z,97902.97
2022-10-06T18:52:43.909Z,97841.94
2022-10-06T18:55:10.564Z,97846.44
2022-10-06T18:57:37.189Z,97759.75
2022-10-06T19:00:04.419Z,97824.63
2022-10-06T19:02:32.325Z,97804.28
2022-10-06T19:04:59.048Z,97827.72
2022-10-06T19:07:25.855Z,97646.81
2022-10-06T19:09:52.512Z,97786.13
2022-10-06T19:12:19.350Z,97764.34
2022-10-06T19:14:47.848Z,97862.09
2022-10-06T19:17:15.160Z,97729.44
2022-10-06T19:19:45.949Z,97798.16
2022-10-06T19:22:13.907Z,97752.34
2022-10-06T19:24:42.170Z,97932.88
2022-10-06T19:27:20.745Z,97771.88
2022-10-06T19:29:54.354Z,97927.88
2022-10-06T19:32:23.652Z,97915.03
2022-10-06T19:34:50.329Z,97773.06
2022-10-06T19:37:17.000Z,97850.44
2022-10-06T19:39:45.242Z,97898.41
2022-10-06T19:42:34.273Z,97783.75
2022-10-06T19:45:00.932Z,97784.97
2022-10-06T19:47:27.888Z,98010.97
2022-10-06T19:49:58.941Z,97906.66
2022-10-06T19:52:27.647Z,97959.06
2022-10-06T19:54:54.327Z,97916.47
2022-10-06T19:57:20.923Z,97834.78
2022-10-06T19:59:47.553Z,97755.53
2022-10-06T20:02:14.214Z,98006.91
2022-10-06T20:04:58.814Z,97915.06
2022-10-06T20:07:27.976Z,97872.78
2022-10-06T20:09:55.163Z,97870.41
2022-10-06T20:12:50.733Z,98014.97
2022-10-06T20:15:17.369Z,97868.50
2022-10-06T20:18:10.482Z,98024.72
2022-10-06T20:20:37.072Z,97839.84
2022-10-06T20:23:03.691Z,97832.25
2022-10-06T20:25:31.242Z,97780.59
2022-10-06T20:27:57.884Z,97820.19
2022-10-06T20:30:24.597Z,97877.91
2022-10-06T20:32:53.730Z,97797.41
2022-10-06T20:35:20.377Z,97975.25
2022-10-06T20:37:47.284Z,97838.97
2022-10-06T20:40:32.698Z,97836.06
2022-10-06T20:43:32.050Z,97859.69
2022-10-06T20:45:59.830Z,97896.41
2022-10-06T20:48:28.866Z,97777.22
2022-10-06T20:50:56.423Z,97841.06
2022-10-06T20:53:31.529Z,97767.47
2022-10-06T20:56:00.274Z,97864.16
2022-10-06T20:58:26.956Z,97803.25
2022-10-06T21:00:54.013Z,97791.94
2022-10-06T21:03:20.656Z,97829.75
2022-10-06T21:05:50.683Z,97863.44
2022-10-06T21:08:17.354Z,97938.66
2022-10-06T21:10:44.017Z,97876.41
2022-10-06T21:13:10.749Z,97914.25
2022-10-06T21:15:45.283Z,97793.47
2022-10-06T21:18:12.006Z,97882.41
2022-10-06T21:20:41.842Z,97920.84
2022-10-06T21:23:13.403Z,97871.91
2022-10-06T21:25:40.071Z,97912.69
2022-10-06T21:28:07.188Z,97860.72
2022-10-06T21:30:34.596Z,97835.66
2022-10-06T21:33:01.454Z,97838.94
2022-10-06T21:35:28.158Z,97953.72
2022-10-06T21:37:54.808Z,97758.13
2022-10-06T21:40:21.496Z,97892.88
2022-10-06T21:42:48.157Z,97831.50
2022-10-06T21:45:15.116Z,97864.72
2022-10-06T21:47:42.132Z,97860.38
2022-10-06T21:50:09.456Z,97808.66
2022-10-06T21:52:36.197Z,97911.03
2022-10-06T21:55:02.845Z,97950.66
2022-10-06T21:57:29.558Z,97879.19
2022-10-06T21:59:58.991Z,97810.31
2022-10-06T22:02:25.644Z,97716.97
2022-10-06T22:04:52.355Z,97845.97
2022-10-06T22:07:19.041Z,97864.13
2022-10-06T22:09:45.720Z,97873.75
2022-10-06T22:12:12.396Z,97847.00
2022-10-06T22:14:39.059Z,97949.53
2022-10-06T22:17:05.693Z,97912.34
2022-10-06T22:19:32.428Z,97839.53
2022-10-06T22:21:59.123Z,97855.22
2022-10-06T22:24:26.475Z,97909.13
2022-10-06T22:26:53.213Z,97783.31
2022-10-06T22:29:20.202Z,97693.59
2022-10-06T22:31:47.300Z,97875.38
2022-10-06T22:34:15.169Z,97860.94
2022-10-06T22:36:41.957Z,97792.72
2022-10-06T22:39:08.805Z,97832.69
2022-10-06T22:41:35.467Z,97807.09
2022-10-06T22:44:02.239Z,97813.34
2022-10-06T22:46:30.962Z,97745.09
2022-10-06T22:48:57.831Z,97741.31
2022-10-06T22:51:24.697Z,97704.34
2022-10-06T22:53:57.856Z,97794.31
2022-10-06T22:56:25.229Z,97727.78
2022-10-06T22:58:51.860Z,97894.28
2022-10-06T23:01:19.652Z,97926.91
2022-10-06T23:03:46.735Z,97804.75
2022-10-06T23:06:14.388Z,97685.19
2022-10-06T23:08:41.088Z,97774.78
2022-10-06T23:11:13.066Z,97839.13
2022-10-06T23:13:40.108Z,97839.72
2022-10-06T23:16:08.457Z,97738.09
2022-10-06T23:18:36.096Z,97589.03
2022-10-06T23:21:07.524Z,97703.97
2022-10-06T23:23:34.365Z,97821.41
2022-10-06T23:26:08.578Z,97916.34
2022-10-06T23:28:35.294Z,97700.25
2022-10-06T23:31:03.861Z,97888.66
2022-10-06T23:33:31.373Z,97704.00
2022-10-06T23:35:59.133Z,97711.31
2022-10-06T23:38:26.019Z,97798.56
2022-10-06T23:40:52.863Z,97789.38
2022-10-06T23:43:19.602Z,97887.25
2022-10-06T23:45:46.332Z,97800.31
2022-10-06T23:48:13.070Z,97931.44
2022-10-06T23:50:40.149Z,97733.41
2022-10-06T23:53:07.062Z,97828.31
2022-10-06T23:55:33.717Z,97688.63
2022-10-06T23:58:00.368Z,97788.25
